Time;durP1;ratioP1;P1;durP2;ratioP2;P2;SDS_P1;SDS_P2;PMS_P1;PMS_P2;Temp;Humidity;BMP_temperature;BMP_pressure;BME280_temperature;BME280_humidity;BME280_pressure;Samples;Min_cycle;Max_cycle;Signal;HPM_P1;HPM_P2
2021/04/20 00:02:15;;;;;;;9.10;5.97;;;;;;;;;;5031720;28;20373;-80
2021/04/20 00:04:41;;;;;;;9.13;6.05;;;;;;;;;;5033557;28;20373;-80
2021/04/20 00:07:07;;;;;;;12.65;6.57;;;;;;;;;;5032880;28;20370;-80
2021/04/20 00:09:33;;;;;;;10.80;5.93;;;;;;;;;;5032610;28;20460;-80
2021/04/20 00:11:59;;;;;;;13.38;6.25;;;;;;;;;;5032923;28;20369;-80
2021/04/20 00:14:25;;;;;;;13.07;6.18;;;;;;;;;;5031472;28;20361;-80
2021/04/20 00:16:51;;;;;;;11.10;6.40;;;;;;;;;;5033025;28;20405;-80
2021/04/20 00:19:17;;;;;;;11.23;5.95;;;;;;;;;;5032583;28;20967;-80
2021/04/20 00:21:44;;;;;;;10.73;5.95;;;;;;;;;;5032527;28;20393;-79
2021/04/20 00:24:10;;;;;;;9.15;6.10;;;;;;;;;;5032562;28;20408;-80
2021/04/20 00:26:36;;;;;;;12.60;6.63;;;;;;;;;;5032746;28;20366;-80
2021/04/20 00:29:02;;;;;;;12.38;6.85;;;;;;;;;;5032756;28;20374;-80
2021/04/20 00:31:28;;;;;;;12.40;6.93;;;;;;;;;;5032596;28;20372;-80
2021/04/20 00:33:54;;;;;;;14.60;6.40;;;;;;;;;;5032502;28;20377;-80
2021/04/20 00:36:20;;;;;;;13.97;6.70;;;;;;;;;;5031112;28;20386;-80
2021/04/20 00:38:46;;;;;;;11.07;6.43;;;;;;;;;;5030877;28;20930;-80
2021/04/20 00:41:13;;;;;;;10.20;6.68;;;;;;;;;;5032180;28;20405;-80
2021/04/20 00:43:40;;;;;;;15.40;6.70;;;;;;;;;;5032136;28;20389;-80
2021/04/20 00:46:10;;;;;;;8.90;5.90;;;;;;;;;;5032440;28;20464;-80
2021/04/20 00:48:36;;;;;;;11.77;6.20;;;;;;;;;;5032116;28;20448;-80
2021/04/20 00:51:03;;;;;;;9.25;6.05;;;;;;;;;;5031963;28;20402;-80
2021/04/20 00:53:29;;;;;;;10.97;6.30;;;;;;;;;;5030850;28;20386;-80
2021/04/20 00:55:55;;;;;;;11.75;6.95;;;;;;;;;;5031616;28;20472;-80
2021/04/20 00:58:21;;;;;;;13.18;7.15;;;;;;;;;;5030644;28;20921;-80
2021/04/20 01:00:48;;;;;;;9.88;6.55;;;;;;;;;;5031986;28;20447;-80
2021/04/20 01:03:14;;;;;;;15.98;7.70;;;;;;;;;;5031798;28;20372;-80
2021/04/20 01:05:40;;;;;;;12.75;7.38;;;;;;;;;;5030509;28;20381;-80
2021/04/20 01:08:10;;;;;;;12.63;7.40;;;;;;;;;;5030605;28;20505;-80
2021/04/20 01:10:38;;;;;;;12.75;7.20;;;;;;;;;;5031766;28;20381;-80
2021/04/20 01:13:05;;;;;;;11.75;6.60;;;;;;;;;;5031987;28;20369;-80
2021/04/20 01:15:32;;;;;;;9.00;6.70;;;;;;;;;;5031916;28;20458;-80
2021/04/20 01:18:08;;;;;;;11.68;7.55;;;;;;;;;;5031576;28;20378;-80
2021/04/20 01:20:34;;;;;;;12.80;7.07;;;;;;;;;;5031647;28;20402;-80
2021/04/20 01:23:00;;;;;;;10.65;6.88;;;;;;;;;;5031946;28;20760;-80
2021/04/20 01:25:26;;;;;;;13.90;7.90;;;;;;;;;;5031498;28;20405;-80
2021/04/20 01:27:52;;;;;;;11.95;7.38;;;;;;;;;;5031483;28;20377;-80
2021/04/20 01:30:18;;;;;;;12.85;6.97;;;;;;;;;;5031584;28;20860;-80
2021/04/20 01:32:44;;;;;;;17.20;7.82;;;;;;;;;;5031409;28;20465;-80
2021/04/20 01:35:13;;;;;;;15.38;7.68;;;;;;;;;;5031243;28;20936;-80
2021/04/20 01:37:39;;;;;;;10.70;7.63;;;;;;;;;;5031055;28;20382;-80
2021/04/20 01:40:06;;;;;;;18.30;7.70;;;;;;;;;;5030939;28;20385;-80
2021/04/20 01:42:33;;;;;;;13.57;7.45;;;;;;;;;;5029754;28;20381;-80
2021/04/20 01:44:59;;;;;;;12.35;7.85;;;;;;;;;;5031167;28;20891;-80
2021/04/20 01:47:25;;;;;;;14.50;8.60;;;;;;;;;;5031000;28;20366;-80
2021/04/20 01:49:51;;;;;;;16.70;8.50;;;;;;;;;;5030908;28;20365;-80
2021/04/20 01:52:17;;;;;;;14.27;8.13;;;;;;;;;;5030884;28;20366;-80
2021/04/20 01:54:43;;;;;;;15.60;8.27;;;;;;;;;;5032567;28;20423;-79
2021/04/20 01:57:10;;;;;;;16.35;8.82;;;;;;;;;;5035605;28;20740;-80
2021/04/20 01:59:36;;;;;;;13.73;8.25;;;;;;;;;;5030430;28;20365;-80
2021/04/20 02:02:02;;;;;;;14.18;8.00;;;;;;;;;;5029550;28;20443;-80
2021/04/20 02:04:28;;;;;;;11.67;8.00;;;;;;;;;;5030926;28;20401;-80
2021/04/20 02:06:55;;;;;;;13.05;8.82;;;;;;;;;;5030891;28;20852;-80
2021/04/20 02:09:22;;;;;;;17.70;9.60;;;;;;;;;;5029579;28;20394;-80
2021/04/20 02:11:48;;;;;;;19.90;9.93;;;;;;;;;;5031445;28;20468;-80
2021/04/20 02:14:14;;;;;;;11.97;8.53;;;;;;;;;;5031675;28;20473;-80
2021/04/20 02:16:41;;;;;;;16.23;8.85;;;;;;;;;;5029581;28;20935;-80
2021/04/20 02:19:07;;;;;;;14.55;8.27;;;;;;;;;;5031081;28;20366;-80
2021/04/20 02:21:34;;;;;;;15.18;8.65;;;;;;;;;;5038399;28;20468;-81
2021/04/20 02:24:00;;;;;;;15.13;8.90;;;;;;;;;;5032139;28;20514;-80
2021/04/20 02:26:46;;;;;;;13.75;8.32;;;;;;;;;;5031388;28;20423;-80
2021/04/20 02:29:13;;;;;;;14.18;8.88;;;;;;;;;;5030903;28;20374;-80
2021/04/20 02:31:40;;;;;;;13.43;8.90;;;;;;;;;;5031042;28;20370;-80
2021/04/20 02:34:07;;;;;;;19.23;9.85;;;;;;;;;;5030855;28;20405;-80
2021/04/20 02:36:37;;;;;;;16.52;9.15;;;;;;;;;;5029395;28;20428;-80
2021/04/20 02:39:04;;;;;;;13.80;9.33;;;;;;;;;;5030845;28;20370;-80
2021/04/20 02:41:30;;;;;;;15.55;9.32;;;;;;;;;;5030405;28;20389;-80
2021/04/20 02:43:56;;;;;;;15.10;9.60;;;;;;;;;;5030945;28;20396;-80
2021/04/20 02:46:22;;;;;;;14.63;9.13;;;;;;;;;;5030956;28;20822;-80
2021/04/20 02:48:49;;;;;;;19.43;9.83;;;;;;;;;;5031014;28;20915;-79
2021/04/20 02:51:16;;;;;;;17.55;9.57;;;;;;;;;;5030858;28;20384;-80
2021/04/20 02:53:42;;;;;;;13.07;8.60;;;;;;;;;;5030742;28;20392;-80
2021/04/20 02:56:11;;;;;;;11.50;7.57;;;;;;;;;;5030906;28;20436;-80
2021/04/20 02:58:38;;;;;;;10.75;7.95;;;;;;;;;;5030543;28;20365;-80
2021/04/20 03:01:05;;;;;;;13.88;9.18;;;;;;;;;;5029596;28;20398;-80
2021/04/20 03:03:39;;;;;;;15.32;8.52;;;;;;;;;;5030720;28;20368;-80
2021/04/20 03:06:05;;;;;;;12.23;8.52;;;;;;;;;;5030673;28;20400;-80
2021/04/20 03:08:31;;;;;;;14.93;9.27;;;;;;;;;;5029044;28;20872;-80
2021/04/20 03:11:00;;;;;;;17.55;10.25;;;;;;;;;;5030571;28;20378;-80
2021/04/20 03:13:26;;;;;;;12.45;8.48;;;;;;;;;;5031262;28;20427;-80
2021/04/20 03:15:53;;;;;;;12.98;8.57;;;;;;;;;;5030955;28;20381;-80
2021/04/20 03:18:19;;;;;;;15.18;9.80;;;;;;;;;;5032246;28;20369;-80
2021/04/20 03:20:45;;;;;;;17.15;10.13;;;;;;;;;;5034352;28;20400;-80
2021/04/20 03:23:11;;;;;;;15.63;9.40;;;;;;;;;;5034516;28;20728;-80
2021/04/20 03:25:37;;;;;;;15.73;10.20;;;;;;;;;;5034426;28;20492;-80
2021/04/20 03:28:03;;;;;;;17.83;10.05;;;;;;;;;;5034493;28;20369;-80
2021/04/20 03:30:33;;;;;;;15.93;11.73;;;;;;;;;;5034048;28;20732;-80
2021/04/20 03:33:07;;;;;;;14.75;10.40;;;;;;;;;;5034137;28;20419;-80
2021/04/20 03:35:43;;;;;;;17.98;11.52;;;;;;;;;;5032277;28;20381;-80
2021/04/20 03:38:12;;;;;;;15.43;10.20;;;;;;;;;;5032534;28;20717;-80
2021/04/20 03:40:39;;;;;;;16.17;11.00;;;;;;;;;;5033492;28;20393;-79
2021/04/20 03:43:13;;;;;;;17.03;10.87;;;;;;;;;;5032297;28;20408;-80
2021/04/20 03:45:42;;;;;;;16.85;11.57;;;;;;;;;;5033824;28;20396;-80
2021/04/20 03:48:27;;;;;;;18.90;11.77;;;;;;;;;;5033563;28;20452;-80
2021/04/20 03:50:58;;;;;;;16.15;11.50;;;;;;;;;;5033736;28;20736;-79
2021/04/20 03:53:25;;;;;;;17.88;12.00;;;;;;;;;;5033592;28;20372;-79
2021/04/20 03:55:51;;;;;;;19.35;12.10;;;;;;;;;;5033466;28;20376;-79
2021/04/20 03:58:19;;;;;;;14.75;11.40;;;;;;;;;;5032009;28;20464;-79
2021/04/20 04:00:49;;;;;;;21.98;12.70;;;;;;;;;;5033272;28;20480;-79
2021/04/20 04:03:16;;;;;;;17.50;11.98;;;;;;;;;;5031748;28;20370;-79
2021/04/20 04:05:43;;;;;;;20.23;11.97;;;;;;;;;;5032006;28;20373;-80
2021/04/20 04:08:09;;;;;;;18.95;11.27;;;;;;;;;;5033189;28;20373;-80
2021/04/20 04:10:36;;;;;;;16.52;11.50;;;;;;;;;;5033179;28;20381;-80
2021/04/20 04:13:04;;;;;;;18.55;11.70;;;;;;;;;;5031919;28;20377;-80
2021/04/20 04:15:32;;;;;;;15.50;11.15;;;;;;;;;;5033110;28;20372;-80
2021/04/20 04:17:59;;;;;;;19.30;12.52;;;;;;;;;;5033133;28;20933;-80
2021/04/20 04:20:25;;;;;;;18.17;11.98;;;;;;;;;;5032874;28;20400;-80
2021/04/20 04:22:57;;;;;;;20.25;12.40;;;;;;;;;;5032935;28;20362;-80
2021/04/20 04:25:29;;;;;;;17.60;12.30;;;;;;;;;;5033155;28;20370;-80
2021/04/20 04:27:58;;;;;;;16.98;11.90;;;;;;;;;;5033067;28;20445;-80
2021/04/20 04:30:24;;;;;;;19.40;11.87;;;;;;;;;;5031958;28;20409;-80
2021/04/20 04:32:51;;;;;;;14.52;10.90;;;;;;;;;;5031568;28;20384;-80
2021/04/20 04:35:18;;;;;;;17.00;11.27;;;;;;;;;;5033061;28;20472;-80
2021/04/20 04:37:45;;;;;;;17.27;12.27;;;;;;;;;;5032782;28;20361;-80
2021/04/20 04:40:11;;;;;;;18.77;12.13;;;;;;;;;;5032649;28;20397;-80
2021/04/20 04:42:37;;;;;;;18.52;12.02;;;;;;;;;;5031392;28;20406;-80
2021/04/20 04:45:05;;;;;;;20.95;12.48;;;;;;;;;;5032553;28;20464;-80
2021/04/20 04:47:32;;;;;;;18.85;12.02;;;;;;;;;;5031625;28;20728;-80
2021/04/20 04:50:04;;;;;;;18.10;11.40;;;;;;;;;;5032649;28;20492;-80
2021/04/20 04:52:31;;;;;;;14.95;10.50;;;;;;;;;;5032569;28;20369;-80
2021/04/20 04:54:57;;;;;;;16.20;10.40;;;;;;;;;;5032763;28;20369;-80
2021/04/20 04:57:25;;;;;;;16.65;9.43;;;;;;;;;;5032439;28;20915;-80
2021/04/20 04:59:52;;;;;;;12.60;9.02;;;;;;;;;;5032628;28;20794;-80
2021/04/20 05:02:18;;;;;;;16.20;9.63;;;;;;;;;;5031307;28;20879;-80
2021/04/20 05:04:44;;;;;;;14.07;9.73;;;;;;;;;;5032081;28;20395;-80
2021/04/20 05:07:10;;;;;;;16.42;10.77;;;;;;;;;;5030942;28;20918;-80
2021/04/20 05:09:36;;;;;;;16.77;10.67;;;;;;;;;;5032172;28;20472;-80
2021/04/20 05:12:03;;;;;;;16.00;10.13;;;;;;;;;;5031181;28;20456;-80
2021/04/20 05:14:29;;;;;;;18.95;10.73;;;;;;;;;;5032322;28;20385;-80
2021/04/20 05:16:55;;;;;;;18.83;10.77;;;;;;;;;;5032472;28;20372;-80
2021/04/20 05:19:29;;;;;;;17.60;10.55;;;;;;;;;;5032176;28;20393;-80
2021/04/20 05:21:58;;;;;;;17.98;11.27;;;;;;;;;;5030731;28;20416;-80
2021/04/20 05:24:25;;;;;;;19.48;11.27;;;;;;;;;;5031971;28;20362;-80
2021/04/20 05:26:51;;;;;;;16.40;10.80;;;;;;;;;;5032002;28;20397;-80
2021/04/20 05:29:17;;;;;;;15.15;10.55;;;;;;;;;;5030545;28;20381;-80
2021/04/20 05:31:44;;;;;;;14.18;10.13;;;;;;;;;;5031842;28;20382;-80
2021/04/20 05:34:11;;;;;;;14.20;9.80;;;;;;;;;;5035572;28;20362;-80
2021/04/20 05:36:37;;;;;;;19.15;10.38;;;;;;;;;;5035149;28;20373;-80
2021/04/20 05:39:08;;;;;;;18.45;10.85;;;;;;;;;;5031938;28;20452;-80
2021/04/20 05:41:35;;;;;;;17.73;10.60;;;;;;;;;;5031640;28;20446;-80
2021/04/20 05:44:03;;;;;;;18.30;11.15;;;;;;;;;;5031638;28;20850;-80
2021/04/20 05:46:29;;;;;;;20.30;10.52;;;;;;;;;;5030596;28;20469;-80
2021/04/20 05:48:56;;;;;;;16.42;10.55;;;;;;;;;;5031598;28;20381;-80
2021/04/20 05:51:22;;;;;;;17.77;10.13;;;;;;;;;;5031619;28;20427;-79
2021/04/20 05:53:50;;;;;;;15.52;9.88;;;;;;;;;;5031609;28;20452;-80
2021/04/20 05:56:17;;;;;;;18.52;9.57;;;;;;;;;;5031816;28;20377;-80
2021/04/20 05:58:43;;;;;;;17.42;9.60;;;;;;;;;;5031512;28;20393;-80
2021/04/20 06:01:09;;;;;;;14.80;9.40;;;;;;;;;;5030220;28;20884;-80
2021/04/20 06:03:35;;;;;;;15.32;9.98;;;;;;;;;;5031667;28;20366;-80
2021/04/20 06:06:05;;;;;;;14.35;9.40;;;;;;;;;;5031312;28;20361;-80
2021/04/20 06:08:32;;;;;;;16.88;10.13;;;;;;;;;;5031862;28;20728;-79
2021/04/20 06:10:58;;;;;;;17.70;10.30;;;;;;;;;;5031649;28;20921;-78
2021/04/20 06:13:26;;;;;;;18.67;10.40;;;;;;;;;;5030944;28;20378;-78
2021/04/20 06:15:52;;;;;;;19.03;11.13;;;;;;;;;;5031926;28;20541;-80
2021/04/20 06:18:18;;;;;;;20.13;11.93;;;;;;;;;;5030659;28;20377;-82
2021/04/20 06:20:45;;;;;;;21.00;12.10;;;;;;;;;;5031105;28;20490;-80
2021/04/20 06:23:11;;;;;;;18.67;11.30;;;;;;;;;;5031754;28;20521;-79
2021/04/20 06:25:37;;;;;;;20.83;12.00;;;;;;;;;;5030557;28;20388;-80
2021/04/20 06:28:04;;;;;;;21.33;12.07;;;;;;;;;;5032287;28;20862;-83
2021/04/20 06:30:30;;;;;;;23.90;12.45;;;;;;;;;;5025638;28;20500;-79
2021/04/20 06:32:56;;;;;;;20.73;12.63;;;;;;;;;;5027149;28;20942;-80
2021/04/20 06:35:23;;;;;;;21.00;11.73;;;;;;;;;;5031470;28;20435;-81
2021/04/20 06:37:50;;;;;;;19.98;11.93;;;;;;;;;;5031805;28;20373;-80
2021/04/20 06:40:23;;;;;;;17.60;11.45;;;;;;;;;;5031032;28;20397;-79
2021/04/20 06:42:54;;;;;;;19.55;11.90;;;;;;;;;;5030212;28;20377;-80
2021/04/20 06:45:24;;;;;;;20.58;11.25;;;;;;;;;;5031431;28;20468;-80
2021/04/20 06:47:53;;;;;;;18.00;10.60;;;;;;;;;;5032002;28;20373;-80
2021/04/20 06:50:21;;;;;;;19.00;11.02;;;;;;;;;;5031472;28;20464;-79
2021/04/20 06:52:51;;;;;;;14.48;9.85;;;;;;;;;;5031587;28;20377;-80
2021/04/20 06:55:23;;;;;;;16.97;10.17;;;;;;;;;;5035177;28;20450;-80
2021/04/20 06:57:53;;;;;;;17.02;9.63;;;;;;;;;;5034285;28;20793;-81
2021/04/20 07:00:25;;;;;;;18.92;10.02;;;;;;;;;;5034218;28;20393;-82
2021/04/20 07:02:57;;;;;;;15.65;9.68;;;;;;;;;;5035176;28;20361;-80
2021/04/20 07:05:42;;;;;;;16.40;9.35;;;;;;;;;;5035269;28;20400;-82
2021/04/20 07:08:24;;;;;;;18.30;10.40;;;;;;;;;;5044547;28;20389;-82
2021/04/20 07:10:53;;;;;;;18.67;9.93;;;;;;;;;;5034970;28;20373;-81
2021/04/20 07:13:24;;;;;;;20.33;10.05;;;;;;;;;;5034897;28;20365;-80
2021/04/20 07:15:57;;;;;;;17.63;10.15;;;;;;;;;;5034819;28;20779;-80
2021/04/20 07:18:29;;;;;;;14.75;9.75;;;;;;;;;;5033167;28;20372;-81
2021/04/20 07:21:01;;;;;;;17.63;9.30;;;;;;;;;;5034375;28;20417;-81
2021/04/20 07:23:46;;;;;;;15.52;9.43;;;;;;;;;;5034615;28;20373;-81
2021/04/20 07:26:30;;;;;;;19.05;9.32;;;;;;;;;;5034404;28;20365;-82
2021/04/20 07:29:10;;;;;;;17.43;9.60;;;;;;;;;;5034172;28;20836;-80
2021/04/20 07:31:55;;;;;;;16.20;9.05;;;;;;;;;;5034036;28;20369;-81
2021/04/20 07:34:39;;;;;;;15.33;9.20;;;;;;;;;;5033990;28;20357;-80
2021/04/20 07:37:12;;;;;;;17.23;9.32;;;;;;;;;;5033028;28;20412;-80
2021/04/20 07:40:01;;;;;;;16.42;9.30;;;;;;;;;;5033855;28;20373;-81
2021/04/20 07:42:27;;;;;;;18.13;9.55;;;;;;;;;;5023689;28;20374;-82
2021/04/20 07:44:57;;;;;;;16.77;9.75;;;;;;;;;;5033861;28;20419;-80
2021/04/20 07:47:24;;;;;;;18.08;9.82;;;;;;;;;;5032439;28;20691;-80
2021/04/20 07:50:02;;;;;;;17.85;9.82;;;;;;;;;;5033483;28;20400;-82
2021/04/20 07:52:46;;;;;;;16.70;9.40;;;;;;;;;;5033430;28;20485;-81
2021/04/20 07:55:15;;;;;;;19.80;9.77;;;;;;;;;;5033631;28;20451;-81
2021/04/20 07:57:43;;;;;;;17.48;9.80;;;;;;;;;;5033294;28;20461;-81
2021/04/20 08:00:12;;;;;;;15.77;9.30;;;;;;;;;;5033133;28;20397;-80
2021/04/20 08:02:39;;;;;;;18.02;9.38;;;;;;;;;;5031927;28;20412;-82
2021/04/20 08:05:11;;;;;;;20.50;9.90;;;;;;;;;;5032144;28;20369;-81
2021/04/20 08:07:58;;;;;;;17.17;8.57;;;;;;;;;;5033261;28;20373;-82
2021/04/20 08:10:47;;;;;;;17.17;8.80;;;;;;;;;;5032993;28;20381;-81
2021/04/20 08:13:31;;;;;;;17.80;9.17;;;;;;;;;;5033325;28;20844;-80
2021/04/20 08:15:59;;;;;;;17.60;9.27;;;;;;;;;;5031682;28;20424;-79
2021/04/20 08:18:31;;;;;;;13.68;8.43;;;;;;;;;;5031695;28;20373;-79
2021/04/20 08:20:58;;;;;;;17.63;9.07;;;;;;;;;;5029263;28;20535;-83
2021/04/20 08:23:26;;;;;;;16.40;8.93;;;;;;;;;;5032089;28;20845;-79
2021/04/20 08:25:54;;;;;;;15.82;8.32;;;;;;;;;;5030841;28;20851;-79
2021/04/20 08:28:25;;;;;;;16.63;9.27;;;;;;;;;;5031889;28;20365;-79
2021/04/20 08:31:03;;;;;;;14.52;8.38;;;;;;;;;;5032339;28;20451;-79
2021/04/20 08:33:32;;;;;;;15.73;8.82;;;;;;;;;;5032173;28;20366;-79
2021/04/20 08:35:59;;;;;;;15.47;8.83;;;;;;;;;;5031270;28;20386;-81
2021/04/20 08:38:44;;;;;;;16.10;9.10;;;;;;;;;;5032773;28;20388;-79
2021/04/20 08:41:16;;;;;;;15.48;8.48;;;;;;;;;;5024750;28;20400;-79
2021/04/20 08:43:42;;;;;;;14.87;8.40;;;;;;;;;;5027260;28;20438;-80
2021/04/20 08:46:11;;;;;;;16.87;9.47;;;;;;;;;;5030263;28;20747;-79
2021/04/20 08:48:40;;;;;;;13.18;8.82;;;;;;;;;;5032370;28;20508;-80
2021/04/20 08:51:14;;;;;;;18.33;9.13;;;;;;;;;;5030993;28;20468;-80
2021/04/20 08:53:54;;;;;;;19.58;9.52;;;;;;;;;;5030519;28;20388;-82
2021/04/20 08:56:26;;;;;;;14.63;8.93;;;;;;;;;;5031794;28;20373;-80
2021/04/20 08:58:58;;;;;;;15.43;8.80;;;;;;;;;;5032112;28;20365;-79
2021/04/20 09:01:37;;;;;;;15.93;9.45;;;;;;;;;;5031916;28;20454;-80
2021/04/20 09:04:06;;;;;;;14.23;8.50;;;;;;;;;;5030712;28;20907;-81
2021/04/20 09:06:38;;;;;;;13.43;8.87;;;;;;;;;;5031616;28;20429;-79
2021/04/20 09:09:05;;;;;;;14.60;8.77;;;;;;;;;;5031136;28;20784;-80
2021/04/20 09:11:41;;;;;;;16.80;8.73;;;;;;;;;;5031711;28;20871;-80
2021/04/20 09:14:11;;;;;;;12.65;8.25;;;;;;;;;;5032201;28;20379;-79
2021/04/20 09:16:44;;;;;;;13.73;8.10;;;;;;;;;;5023784;28;20441;-80
2021/04/20 09:19:32;;;;;;;12.85;8.38;;;;;;;;;;5031838;28;20399;-80
2021/04/20 09:22:18;;;;;;;11.80;8.53;;;;;;;;;;5031478;28;20742;-79
2021/04/20 09:25:04;;;;;;;13.38;8.38;;;;;;;;;;5031450;28;20376;-79
2021/04/20 09:27:48;;;;;;;20.50;8.88;;;;;;;;;;5012089;28;20376;-80
2021/04/20 09:30:17;;;;;;;13.88;8.60;;;;;;;;;;5030152;28;20384;-80
2021/04/20 09:32:48;;;;;;;14.93;8.35;;;;;;;;;;5019109;28;20392;-81
2021/04/20 09:35:14;;;;;;;14.73;8.40;;;;;;;;;;5029062;28;20419;-80
2021/04/20 09:37:41;;;;;;;14.60;8.82;;;;;;;;;;5024921;28;20406;-83
2021/04/20 09:40:08;;;;;;;15.73;8.75;;;;;;;;;;5014607;28;20395;-80
2021/04/20 09:42:35;;;;;;;15.45;9.10;;;;;;;;;;5011558;28;20387;-80
2021/04/20 09:45:15;;;;;;;16.70;8.68;;;;;;;;;;5024564;28;20381;-80
2021/04/20 09:47:51;;;;;;;14.98;8.73;;;;;;;;;;5028293;28;20743;-80
2021/04/20 09:50:41;;;;;;;14.35;9.02;;;;;;;;;;5020710;28;20382;-80
2021/04/20 09:53:18;;;;;;;18.45;8.93;;;;;;;;;;5012325;28;20387;-80
2021/04/20 09:56:03;;;;;;;13.73;9.03;;;;;;;;;;5011586;28;20422;-81
2021/04/20 09:58:31;;;;;;;14.95;9.07;;;;;;;;;;5011467;28;20410;-81
2021/04/20 10:01:01;;;;;;;14.50;8.60;;;;;;;;;;5009802;28;20402;-81
2021/04/20 10:03:34;;;;;;;11.57;7.75;;;;;;;;;;5011155;28;20378;-80
2021/04/20 10:06:19;;;;;;;13.73;8.60;;;;;;;;;;5011144;28;20390;-80
2021/04/20 10:09:00;;;;;;;12.02;8.20;;;;;;;;;;5011079;28;20359;-81
2021/04/20 10:11:32;;;;;;;11.27;7.22;;;;;;;;;;5009732;28;21188;-81
2021/04/20 10:14:03;;;;;;;13.15;8.88;;;;;;;;;;5023888;28;20460;-81
2021/04/20 10:16:48;;;;;;;16.48;9.02;;;;;;;;;;5029457;28;20397;-80
2021/04/20 10:19:33;;;;;;;12.27;7.65;;;;;;;;;;5029566;28;20361;-81
2021/04/20 10:22:17;;;;;;;14.80;7.72;;;;;;;;;;5029796;28;20452;-80
2021/04/20 10:24:48;;;;;;;13.95;8.40;;;;;;;;;;5029019;28;20851;-79
2021/04/20 10:27:16;;;;;;;13.18;8.27;;;;;;;;;;5030022;28;20372;-80
2021/04/20 10:29:48;;;;;;;15.75;7.80;;;;;;;;;;5029487;28;20442;-80
2021/04/20 10:32:14;;;;;;;14.10;7.43;;;;;;;;;;5030851;28;20350;-82
2021/04/20 10:34:44;;;;;;;15.13;8.93;;;;;;;;;;5031390;28;20377;-80
2021/04/20 10:37:11;;;;;;;14.07;8.40;;;;;;;;;;5031318;28;20396;-84
2021/04/20 10:39:37;;;;;;;14.73;8.75;;;;;;;;;;5029399;28;20874;-81
2021/04/20 10:42:04;;;;;;;14.93;8.07;;;;;;;;;;5031399;28;20393;-80
2021/04/20 10:44:33;;;;;;;14.02;8.63;;;;;;;;;;5030369;28;20783;-79
2021/04/20 10:47:00;;;;;;;12.87;8.70;;;;;;;;;;5031890;28;20905;-83
2021/04/20 10:49:31;;;;;;;14.50;8.40;;;;;;;;;;5031181;28;20863;-80
2021/04/20 10:51:58;;;;;;;14.63;8.45;;;;;;;;;;5029598;28;20450;-80
2021/04/20 10:54:29;;;;;;;13.25;8.40;;;;;;;;;;5029987;28;20380;-81
2021/04/20 10:56:56;;;;;;;11.10;7.70;;;;;;;;;;5030186;28;20375;-80
2021/04/20 10:59:28;;;;;;;12.80;7.55;;;;;;;;;;5029968;28;20361;-81
2021/04/20 11:01:56;;;;;;;16.02;7.53;;;;;;;;;;5030203;28;20439;-80
2021/04/20 11:04:23;;;;;;;16.30;7.33;;;;;;;;;;5029625;28;20366;-80
2021/04/20 11:07:10;;;;;;;12.93;6.90;;;;;;;;;;5034518;28;20847;-79
2021/04/20 11:09:36;;;;;;;10.27;7.20;;;;;;;;;;5028963;28;20377;-80
2021/04/20 11:12:16;;;;;;;15.48;7.47;;;;;;;;;;5028057;28;20381;-80
2021/04/20 11:14:43;;;;;;;11.75;6.90;;;;;;;;;;5029342;28;20465;-81
2021/04/20 11:17:18;;;;;;;13.60;7.33;;;;;;;;;;5027855;28;20752;-81
2021/04/20 11:19:46;;;;;;;12.93;8.02;;;;;;;;;;5026768;28;20456;-82
2021/04/20 11:22:14;;;;;;;13.52;6.93;;;;;;;;;;5030097;28;20931;-81
2021/04/20 11:24:43;;;;;;;10.70;6.75;;;;;;;;;;5027177;28;20406;-80
2021/04/20 11:27:10;;;;;;;12.00;7.05;;;;;;;;;;5028554;28;20472;-82
2021/04/20 11:29:46;;;;;;;10.23;6.43;;;;;;;;;;5029298;28;20364;-82
2021/04/20 11:32:17;;;;;;;11.35;6.95;;;;;;;;;;5029033;28;20787;-81
2021/04/20 11:34:45;;;;;;;12.18;6.75;;;;;;;;;;5029319;28;20456;-80
2021/04/20 11:37:12;;;;;;;9.65;6.50;;;;;;;;;;5028389;28;20365;-80
2021/04/20 11:39:38;;;;;;;10.77;6.82;;;;;;;;;;5029441;28;20630;-81
2021/04/20 11:42:06;;;;;;;9.10;6.40;;;;;;;;;;5031711;28;20755;-79
2021/04/20 11:44:37;;;;;;;13.32;7.43;;;;;;;;;;5033424;28;20382;-79
2021/04/20 11:47:05;;;;;;;9.82;6.32;;;;;;;;;;5032231;28;20431;-80
2021/04/20 11:49:33;;;;;;;9.80;6.22;;;;;;;;;;5032852;28;20397;-79
2021/04/20 11:51:59;;;;;;;10.00;6.07;;;;;;;;;;5032765;28;20373;-81
2021/04/20 11:54:33;;;;;;;12.45;6.28;;;;;;;;;;5030976;28;20401;-81
2021/04/20 11:57:01;;;;;;;9.93;6.03;;;;;;;;;;5028345;28;20416;-82
2021/04/20 11:59:28;;;;;;;11.50;5.95;;;;;;;;;;5031464;28;20446;-83
2021/04/20 12:01:55;;;;;;;11.98;5.80;;;;;;;;;;5031513;28;20393;-81
2021/04/20 12:04:46;;;;;;;10.43;6.03;;;;;;;;;;5031862;28;20386;-81
2021/04/20 12:07:14;;;;;;;10.02;6.18;;;;;;;;;;5030299;28;20377;-80
2021/04/20 12:09:41;;;;;;;10.90;5.85;;;;;;;;;;5030259;28;20381;-82
2021/04/20 12:12:08;;;;;;;11.50;5.95;;;;;;;;;;5049105;28;20377;-81
2021/04/20 12:14:38;;;;;;;8.77;5.93;;;;;;;;;;5034689;28;20449;-82
2021/04/20 12:17:04;;;;;;;7.72;5.35;;;;;;;;;;5031513;28;20922;-82
2021/04/20 12:19:32;;;;;;;9.45;5.55;;;;;;;;;;5033243;28;20374;-82
2021/04/20 12:21:59;;;;;;;13.77;4.97;;;;;;;;;;5032455;28;20849;-84
2021/04/20 12:24:26;;;;;;;10.10;4.80;;;;;;;;;;5033419;28;20369;-81
2021/04/20 12:26:56;;;;;;;11.98;4.90;;;;;;;;;;5033648;28;20365;-83
2021/04/20 12:29:27;;;;;;;7.10;4.80;;;;;;;;;;5033386;28;20365;-81
2021/04/20 12:31:53;;;;;;;10.35;5.25;;;;;;;;;;5032117;28;20445;-82
2021/04/20 12:34:29;;;;;;;9.95;5.47;;;;;;;;;;5031656;28;20381;-83
2021/04/20 12:36:56;;;;;;;9.20;4.70;;;;;;;;;;5032361;28;20413;-82
2021/04/20 12:39:27;;;;;;;8.80;4.30;;;;;;;;;;5032680;28;20366;-81
2021/04/20 12:41:54;;;;;;;10.50;4.30;;;;;;;;;;5032579;28;20813;-82
2021/04/20 12:44:23;;;;;;;9.75;4.85;;;;;;;;;;5032909;28;20376;-81
2021/04/20 12:46:52;;;;;;;10.02;4.50;;;;;;;;;;5031413;28;20472;-82
2021/04/20 12:49:21;;;;;;;9.73;4.28;;;;;;;;;;5033055;28;20453;-82
2021/04/20 12:51:48;;;;;;;9.20;5.03;;;;;;;;;;5032148;28;20713;-82
2021/04/20 12:54:19;;;;;;;10.20;4.73;;;;;;;;;;5032602;28;20385;-82
2021/04/20 12:56:45;;;;;;;7.90;4.45;;;;;;;;;;5038353;28;20374;-81
2021/04/20 12:59:21;;;;;;;7.53;4.67;;;;;;;;;;5030987;28;20380;-82
2021/04/20 13:01:48;;;;;;;9.98;4.72;;;;;;;;;;5030563;28;20929;-80
2021/04/20 13:04:14;;;;;;;7.27;4.17;;;;;;;;;;5031907;28;20369;-81
2021/04/20 13:06:46;;;;;;;9.15;4.70;;;;;;;;;;5032007;28;20374;-82
2021/04/20 13:09:12;;;;;;;8.75;4.05;;;;;;;;;;5030336;28;20372;-81
2021/04/20 13:11:39;;;;;;;10.60;4.20;;;;;;;;;;5031926;28;20469;-81
2021/04/20 13:14:06;;;;;;;7.70;4.10;;;;;;;;;;5032113;28;20373;-81
2021/04/20 13:16:33;;;;;;;7.82;3.90;;;;;;;;;;5031817;28;20904;-82
2021/04/20 13:19:07;;;;;;;8.43;3.90;;;;;;;;;;5031805;28;20369;-81
2021/04/20 13:21:34;;;;;;;7.55;3.90;;;;;;;;;;5031613;28;20397;-81
2021/04/20 13:24:02;;;;;;;8.02;4.40;;;;;;;;;;5031923;28;20369;-82
2021/04/20 13:26:29;;;;;;;9.05;4.20;;;;;;;;;;5030518;28;20370;-82
2021/04/20 13:28:56;;;;;;;8.25;3.65;;;;;;;;;;5028582;28;20394;-81
2021/04/20 13:31:30;;;;;;;7.82;3.85;;;;;;;;;;5021877;28;20759;-82
2021/04/20 13:34:01;;;;;;;9.70;4.00;;;;;;;;;;5024244;28;20381;-80
2021/04/20 13:36:27;;;;;;;11.82;4.03;;;;;;;;;;5026735;28;20746;-81
2021/04/20 13:38:56;;;;;;;10.20;4.22;;;;;;;;;;5019764;28;20386;-81
2021/04/20 13:41:23;;;;;;;11.65;4.00;;;;;;;;;;5024325;28;20405;-81
2021/04/20 13:43:50;;;;;;;6.97;3.70;;;;;;;;;;5029898;28;20424;-81
2021/04/20 13:46:16;;;;;;;6.85;3.60;;;;;;;;;;5030095;28;20373;-81
2021/04/20 13:48:43;;;;;;;9.75;4.03;;;;;;;;;;5030383;28;20394;-81
2021/04/20 13:51:10;;;;;;;9.32;3.55;;;;;;;;;;5031084;28;20448;-81
2021/04/20 13:53:39;;;;;;;5.05;3.50;;;;;;;;;;5028990;28;20846;-80
2021/04/20 13:56:11;;;;;;;8.40;4.20;;;;;;;;;;5024865;28;20406;-81
2021/04/20 13:59:11;;;;;;;10.10;4.10;;;;;;;;;;5029548;28;20385;-82
2021/04/20 14:01:39;;;;;;;8.40;4.20;;;;;;;;;;5004910;28;20450;-81
2021/04/20 14:04:24;;;;;;;7.72;4.20;;;;;;;;;;5030063;28;20386;-81
2021/04/20 14:06:55;;;;;;;12.10;3.92;;;;;;;;;;5026157;28;20461;-81
2021/04/20 14:09:24;;;;;;;8.38;3.67;;;;;;;;;;5024759;28;20386;-81
2021/04/20 14:11:54;;;;;;;6.93;3.72;;;;;;;;;;5027141;28;20369;-82
2021/04/20 14:14:23;;;;;;;10.23;4.40;;;;;;;;;;5029373;28;20708;-81
2021/04/20 14:16:51;;;;;;;14.77;5.00;;;;;;;;;;5028965;28;20361;-81
2021/04/20 14:19:21;;;;;;;9.38;4.20;;;;;;;;;;5029620;28;20374;-81
2021/04/20 14:21:48;;;;;;;7.63;3.75;;;;;;;;;;5029822;28;20397;-81
2021/04/20 14:24:15;;;;;;;6.90;3.53;;;;;;;;;;5036964;28;20890;-81
2021/04/20 14:26:46;;;;;;;7.65;3.67;;;;;;;;;;5026552;28;20726;-81
2021/04/20 14:29:12;;;;;;;7.30;3.50;;;;;;;;;;5029681;28;20871;-81
2021/04/20 14:31:38;;;;;;;7.25;3.88;;;;;;;;;;5025748;28;20398;-81
2021/04/20 14:34:06;;;;;;;6.85;3.60;;;;;;;;;;5010544;28;20418;-81
2021/04/20 14:36:36;;;;;;;11.00;3.60;;;;;;;;;;5010249;28;20454;-80
2021/04/20 14:39:10;;;;;;;7.25;3.75;;;;;;;;;;5013601;28;20366;-80
2021/04/20 14:41:38;;;;;;;4.60;3.45;;;;;;;;;;5024588;28;21320;-80
2021/04/20 14:44:10;;;;;;;7.15;3.38;;;;;;;;;;5018215;28;20373;-80